Time;durP1;ratioP1;P1;durP2;ratioP2;P2;SDS_P1;SDS_P2;PMS_P1;PMS_P2;Temp;Humidity;BMP_temperature;BMP_pressure;BME280_temperature;BME280_humidity;BME280_pressure;Samples;Min_cycle;Max_cycle;Signal;HPM_P1;HPM_P2
2021/07/13 00:01:51;;;;;;;;;;;19.60;99.90;;;;;;4966378;28;19929;-90
2021/07/13 00:04:17;;;;;;;;;;;19.60;99.90;;;;;;4977958;28;19921;-90
2021/07/13 00:06:42;;;;;;;;;;;19.60;99.90;;;;;;4972857;28;20537;-90
2021/07/13 00:09:08;;;;;;;;;;;19.60;99.90;;;;;;4998412;28;20016;-88
2021/07/13 00:11:34;;;;;;;;;;;19.60;99.90;;;;;;4964319;28;19963;-89
2021/07/13 00:14:00;;;;;;;;;;;19.60;99.90;;;;;;5000006;28;19988;-88
2021/07/13 00:16:26;;;;;;;;;;;19.60;99.90;;;;;;4952301;28;20490;-89
2021/07/13 00:18:52;;;;;;;;;;;19.60;99.90;;;;;;4974019;28;19928;-88
2021/07/13 00:21:17;;;;;;;;;;;19.60;99.90;;;;;;4976525;28;19973;-89
2021/07/13 00:23:43;;;;;;;;;;;19.60;99.90;;;;;;4972333;28;20374;-88
2021/07/13 00:26:09;;;;;;;;;;;19.60;99.90;;;;;;4954703;28;20366;-92
2021/07/13 00:28:35;;;;;;;;;;;19.60;99.90;;;;;;4987156;28;19922;-88
2021/07/13 00:31:01;;;;;;;;;;;19.60;99.90;;;;;;4958705;28;19980;-88
2021/07/13 00:33:26;;;;;;;;;;;19.50;99.90;;;;;;4993282;28;19983;-88
2021/07/13 00:35:52;;;;;;;;;;;19.50;99.90;;;;;;4992462;28;20021;-89
2021/07/13 00:38:18;;;;;;;;;;;19.50;99.90;;;;;;4977574;28;19926;-88
2021/07/13 00:40:44;;;;;;;;;;;19.50;99.90;;;;;;4983338;28;19921;-89
2021/07/13 00:43:09;;;;;;;;;;;19.50;99.90;;;;;;4978911;28;19933;-93
2021/07/13 00:45:35;;;;;;;;;;;19.50;99.90;;;;;;4974809;28;19926;-90
2021/07/13 00:48:01;;;;;;;;;;;19.50;99.90;;;;;;4974789;28;19922;-89
2021/07/13 00:50:27;;;;;;;;;;;19.50;99.90;;;;;;4989496;28;19928;-89
2021/07/13 00:52:53;;;;;;;;;;;19.40;99.90;;;;;;4970609;28;19922;-89
2021/07/13 00:55:19;;;;;;;;;;;19.40;99.90;;;;;;4987766;28;19929;-89
2021/07/13 00:57:45;;;;;;;;;;;19.40;99.90;;;;;;4975931;28;19922;-89
2021/07/13 01:00:12;;;;;;;;;;;19.40;99.90;;;;;;4988981;28;19921;-92
2021/07/13 01:02:38;;;;;;;;;;;19.30;99.90;;;;;;4969586;28;19997;-89
2021/07/13 01:05:09;;;;;;;;;;;19.30;99.90;;;;;;4967196;28;20378;-89
2021/07/13 01:07:46;;;;;;;;;;;19.30;99.90;;;;;;4970960;28;20438;-89
2021/07/13 01:10:51;;;;;;;;;;;19.30;99.90;;;;;;4986143;28;19997;-89
2021/07/13 01:13:18;;;;;;;;;;;19.30;99.90;;;;;;4944254;28;19926;-89
2021/07/13 01:15:50;;;;;;;;;;;19.30;99.90;;;;;;4955009;28;20473;-88
2021/07/13 01:18:24;;;;;;;;;;;19.30;99.90;;;;;;4984894;28;20004;-88
2021/07/13 01:21:08;;;;;;;;;;;19.20;99.90;;;;;;4993962;28;19926;-89
2021/07/13 01:23:40;;;;;;;;;;;19.20;99.90;;;;;;5003672;28;19980;-90
2021/07/13 01:26:06;;;;;;;;;;;19.20;99.90;;;;;;4995967;28;19925;-89
2021/07/13 01:28:35;;;;;;;;;;;19.20;99.90;;;;;;5009191;28;19928;-88
2021/07/13 01:31:02;;;;;;;;;;;19.10;99.90;;;;;;5013708;28;20059;-89
2021/07/13 01:33:28;;;;;;;;;;;19.10;99.90;;;;;;5013316;28;19921;-88
2021/07/13 01:36:13;;;;;;;;;;;19.00;99.90;;;;;;4963685;28;19922;-88
2021/07/13 01:38:40;;;;;;;;;;;19.00;99.90;;;;;;4961936;28;19925;-88
2021/07/13 01:41:11;;;;;;;;;;;19.00;99.90;;;;;;4984703;28;19932;-92
2021/07/13 01:43:38;;;;;;;;;;;18.90;99.90;;;;;;4985629;28;19925;-88
2021/07/13 01:46:04;;;;;;;;;;;18.90;99.90;;;;;;4981522;28;19929;-89
2021/07/13 01:48:32;;;;;;;;;;;18.90;99.90;;;;;;4993803;28;19936;-88
2021/07/13 01:50:58;;;;;;;;;;;18.80;99.90;;;;;;4980630;28;20020;-89
2021/07/13 01:53:26;;;;;;;;;;;18.80;99.90;;;;;;4974345;28;20020;-89
2021/07/13 01:55:53;;;;;;;;;;;18.70;99.90;;;;;;4986879;28;20389;-89
2021/07/13 01:58:21;;;;;;;;;;;18.70;99.90;;;;;;4993695;28;20296;-87
2021/07/13 02:00:46;;;;;;;;;;;18.70;99.90;;;;;;5003431;28;19925;-88
2021/07/13 02:03:13;;;;;;;;;;;18.70;99.90;;;;;;4998740;28;20297;-91
2021/07/13 02:05:41;;;;;;;;;;;18.60;99.90;;;;;;4976455;28;19933;-92
2021/07/13 02:08:08;;;;;;;;;;;18.60;99.90;;;;;;4973566;28;19925;-89
2021/07/13 02:10:34;;;;;;;;;;;18.60;99.90;;;;;;4988677;28;19917;-90
2021/07/13 02:13:00;;;;;;;;;;;18.50;99.90;;;;;;4963936;28;19933;-89
2021/07/13 02:15:26;;;;;;;;;;;18.40;99.90;;;;;;4979024;28;19926;-88
2021/07/13 02:17:53;;;;;;;;;;;18.40;99.90;;;;;;4972823;28;19922;-88
2021/07/13 02:20:20;;;;;;;;;;;18.40;99.90;;;;;;4982653;28;19945;-88
2021/07/13 02:22:45;;;;;;;;;;;18.40;99.90;;;;;;4978345;28;19922;-88
2021/07/13 02:25:15;;;;;;;;;;;18.30;99.90;;;;;;4984345;28;19928;-89
2021/07/13 02:27:43;;;;;;;;;;;18.30;99.90;;;;;;4974914;28;20435;-89
2021/07/13 02:30:09;;;;;;;;;;;18.20;99.90;;;;;;4982590;28;19929;-88
2021/07/13 02:32:39;;;;;;;;;;;18.20;99.90;;;;;;5007566;28;19921;-89
2021/07/13 02:35:06;;;;;;;;;;;18.20;99.90;;;;;;4987145;28;20616;-88
2021/07/13 02:37:34;;;;;;;;;;;18.10;99.90;;;;;;4985830;28;19922;-88
2021/07/13 02:40:01;;;;;;;;;;;18.10;99.90;;;;;;4973318;28;19945;-88
2021/07/13 02:42:27;;;;;;;;;;;18.10;99.90;;;;;;4973444;28;20365;-88
2021/07/13 02:44:54;;;;;;;;;;;18.10;99.90;;;;;;4988808;28;19953;-89
2021/07/13 02:47:20;;;;;;;;;;;18.00;99.90;;;;;;4992411;28;19925;-92
2021/07/13 02:49:47;;;;;;;;;;;18.00;99.90;;;;;;4978697;28;19932;-91
2021/07/13 02:52:15;;;;;;;;;;;18.10;99.90;;;;;;4984373;28;19922;-89
2021/07/13 02:54:41;;;;;;;;;;;18.10;99.90;;;;;;4971547;28;20382;-89
2021/07/13 02:57:07;;;;;;;;;;;18.10;99.90;;;;;;4965431;28;19971;-90
2021/07/13 02:59:34;;;;;;;;;;;18.20;99.90;;;;;;5006198;28;19921;-90
2021/07/13 03:02:02;;;;;;;;;;;18.20;99.90;;;;;;4983393;28;19976;-89
2021/07/13 03:04:29;;;;;;;;;;;18.30;99.90;;;;;;4986391;28;20351;-89
2021/07/13 03:06:55;;;;;;;;;;;18.40;99.90;;;;;;4988053;28;19928;-89
2021/07/13 03:09:20;;;;;;;;;;;18.40;99.90;;;;;;4991639;28;20401;-90
2021/07/13 03:11:46;;;;;;;;;;;18.50;99.90;;;;;;4991226;28;19925;-91
2021/07/13 03:14:14;;;;;;;;;;;18.50;99.90;;;;;;4988041;28;20052;-90
2021/07/13 03:16:40;;;;;;;;;;;18.60;99.90;;;;;;4979879;28;19918;-90
2021/07/13 03:19:07;;;;;;;;;;;18.70;99.90;;;;;;4977914;28;19926;-88
2021/07/13 03:21:34;;;;;;;;;;;18.70;99.90;;;;;;4971259;28;19953;-88
2021/07/13 03:24:01;;;;;;;;;;;18.80;99.90;;;;;;4972738;28;19926;-89
2021/07/13 03:26:31;;;;;;;;;;;18.80;99.90;;;;;;4977806;28;19957;-89
2021/07/13 03:28:58;;;;;;;;;;;18.90;99.90;;;;;;4980328;28;19973;-89
2021/07/13 03:31:24;;;;;;;;;;;19.00;99.90;;;;;;4975949;28;20005;-91
2021/07/13 03:33:50;;;;;;;;;;;19.00;99.90;;;;;;4981479;28;19957;-88
2021/07/13 03:36:17;;;;;;;;;;;19.00;99.90;;;;;;5004648;28;19960;-89
2021/07/13 03:38:43;;;;;;;;;;;19.00;99.90;;;;;;4971162;28;19921;-89
2021/07/13 03:41:08;;;;;;;;;;;19.00;99.90;;;;;;4971256;28;20306;-89
2021/07/13 03:43:34;;;;;;;;;;;19.10;99.90;;;;;;4961356;28;19964;-90
2021/07/13 03:46:00;;;;;;;;;;;19.00;99.90;;;;;;4972106;28;19922;-88
2021/07/13 03:48:25;;;;;;;;;;;19.10;99.90;;;;;;4987538;28;19926;-91
2021/07/13 03:50:51;;;;;;;;;;;19.10;99.90;;;;;;4974349;28;19928;-90
2021/07/13 03:53:17;;;;;;;;;;;19.20;99.90;;;;;;4972040;28;20013;-91
2021/07/13 03:55:44;;;;;;;;;;;19.20;99.90;;;;;;4968839;28;19922;-91
2021/07/13 03:58:09;;;;;;;;;;;19.20;99.90;;;;;;4954153;28;19934;-91
2021/07/13 04:00:35;;;;;;;;;;;19.30;99.90;;;;;;4973643;28;19921;-89
2021/07/13 04:03:02;;;;;;;;;;;19.30;99.90;;;;;;4967184;28;19926;-89
2021/07/13 04:05:29;;;;;;;;;;;19.30;99.90;;;;;;4990375;28;19922;-90
2021/07/13 04:07:55;;;;;;;;;;;19.30;99.90;;;;;;4961264;28;19953;-89
2021/07/13 04:10:20;;;;;;;;;;;19.30;99.90;;;;;;4976922;28;19922;-90
2021/07/13 04:12:46;;;;;;;;;;;19.30;99.90;;;;;;4996386;28;19921;-90
2021/07/13 04:15:13;;;;;;;;;;;19.30;99.90;;;;;;5017348;28;19975;-89
2021/07/13 04:17:39;;;;;;;;;;;19.30;99.90;;;;;;5000272;28;19921;-89
2021/07/13 04:20:07;;;;;;;;;;;19.40;99.90;;;;;;4997889;28;19978;-92
2021/07/13 04:22:32;;;;;;;;;;;19.40;99.90;;;;;;4996929;28;19921;-90
2021/07/13 04:24:58;;;;;;;;;;;19.40;99.90;;;;;;5004881;28;20081;-92
2021/07/13 04:27:24;;;;;;;;;;;19.40;99.90;;;;;;5004497;28;20373;-89
2021/07/13 04:29:51;;;;;;;;;;;19.40;99.90;;;;;;4996901;28;19951;-89
2021/07/13 04:32:17;;;;;;;;;;;19.30;99.90;;;;;;4997946;28;19925;-89
2021/07/13 04:34:42;;;;;;;;;;;19.30;99.90;;;;;;4980425;28;19928;-89
2021/07/13 04:37:15;;;;;;;;;;;19.30;99.90;;;;;;5007260;28;20489;-90
2021/07/13 04:39:41;;;;;;;;;;;19.30;99.90;;;;;;4983538;28;19929;-90
2021/07/13 04:42:07;;;;;;;;;;;19.30;99.90;;;;;;5008559;28;19922;-89
2021/07/13 04:44:32;;;;;;;;;;;19.30;99.90;;;;;;4980041;28;20230;-90
2021/07/13 04:46:58;;;;;;;;;;;19.30;99.90;;;;;;4980508;28;19961;-89
2021/07/13 04:49:25;;;;;;;;;;;19.30;99.90;;;;;;4980457;28;19922;-89
2021/07/13 04:51:54;;;;;;;;;;;19.40;99.90;;;;;;4996639;28;19922;-90
2021/07/13 04:54:19;;;;;;;;;;;19.40;99.90;;;;;;4987513;28;19922;-90
2021/07/13 04:56:46;;;;;;;;;;;19.40;99.90;;;;;;4979307;28;19925;-90
2021/07/13 04:59:12;;;;;;;;;;;19.40;99.90;;;;;;4962463;28;19944;-90
2021/07/13 05:01:38;;;;;;;;;;;19.40;99.90;;;;;;4984240;28;20378;-92
2021/07/13 05:04:03;;;;;;;;;;;19.40;99.90;;;;;;4988933;28;19925;-90
2021/07/13 05:06:29;;;;;;;;;;;19.40;99.90;;;;;;4968343;28;20432;-93
2021/07/13 05:08:55;;;;;;;;;;;19.40;99.90;;;;;;5011641;28;19921;-91
2021/07/13 05:11:21;;;;;;;;;;;19.40;99.90;;;;;;4974830;28;19922;-90
2021/07/13 05:13:47;;;;;;;;;;;19.50;99.90;;;;;;4987911;28;19932;-90
2021/07/13 05:16:13;;;;;;;;;;;19.40;99.90;;;;;;4955805;28;19926;-92
2021/07/13 05:18:39;;;;;;;;;;;19.50;99.90;;;;;;4968773;28;19929;-89
2021/07/13 05:21:06;;;;;;;;;;;19.50;99.90;;;;;;4991669;28;19922;-91
2021/07/13 05:23:32;;;;;;;;;;;19.50;99.90;;;;;;4975660;28;19944;-91
2021/07/13 05:25:58;;;;;;;;;;;19.60;99.90;;;;;;4976915;28;20016;-91
2021/07/13 05:28:24;;;;;;;;;;;19.60;99.90;;;;;;4977985;28;20025;-90
2021/07/13 05:30:50;;;;;;;;;;;19.60;99.90;;;;;;4987239;28;20463;-90
2021/07/13 05:33:16;;;;;;;;;;;19.70;99.90;;;;;;4974914;28;19922;-91
2021/07/13 05:35:42;;;;;;;;;;;19.80;99.90;;;;;;4974616;28;20330;-90
2021/07/13 05:38:09;;;;;;;;;;;19.80;99.90;;;;;;4979156;28;19922;-88
2021/07/13 05:40:34;;;;;;;;;;;19.90;99.90;;;;;;4989229;28;19992;-93
2021/07/13 05:43:00;;;;;;;;;;;19.90;99.90;;;;;;4976313;28;19926;-90
2021/07/13 05:45:26;;;;;;;;;;;20.10;99.90;;;;;;4986620;28;19932;-90
2021/07/13 05:47:52;;;;;;;;;;;20.20;99.90;;;;;;4990640;28;20156;-90
2021/07/13 05:50:17;;;;;;;;;;;20.20;99.90;;;;;;4974784;28;19976;-91
2021/07/13 05:52:43;;;;;;;;;;;20.30;99.90;;;;;;4974745;28;20370;-90
2021/07/13 05:55:09;;;;;;;;;;;20.40;99.90;;;;;;4987367;28;20446;-90
2021/07/13 05:57:35;;;;;;;;;;;20.40;99.90;;;;;;4980407;28;19922;-93
2021/07/13 06:00:02;;;;;;;;;;;20.50;99.90;;;;;;4975354;28;19976;-91
2021/07/13 06:02:28;;;;;;;;;;;20.60;99.90;;;;;;4972588;28;19972;-88
2021/07/13 06:04:53;;;;;;;;;;;20.60;99.90;;;;;;4977356;28;19930;-91
2021/07/13 06:07:19;;;;;;;;;;;20.70;99.90;;;;;;4972956;28;19922;-89
2021/07/13 06:09:45;;;;;;;;;;;20.80;99.90;;;;;;4993436;28;19936;-89
2021/07/13 06:12:10;;;;;;;;;;;20.90;99.90;;;;;;4980386;28;19922;-91
2021/07/13 06:14:37;;;;;;;;;;;20.90;99.90;;;;;;4973147;28;19980;-91
2021/07/13 06:17:06;;;;;;;;;;;20.90;99.90;;;;;;4972392;28;19945;-89
2021/07/13 06:19:32;;;;;;;;;;;21.00;99.90;;;;;;4973995;28;20009;-89
2021/07/13 06:21:59;;;;;;;;;;;21.00;99.90;;;;;;4981905;28;19917;-89
2021/07/13 06:24:24;;;;;;;;;;;21.10;99.90;;;;;;4974966;28;20282;-90
2021/07/13 06:26:50;;;;;;;;;;;21.00;99.90;;;;;;4970227;28;19922;-90
2021/07/13 06:29:16;;;;;;;;;;;21.10;99.90;;;;;;4974099;28;20372;-91
2021/07/13 06:31:41;;;;;;;;;;;21.10;99.90;;;;;;4987612;28;20336;-90
2021/07/13 06:34:07;;;;;;;;;;;21.10;99.90;;;;;;4982802;28;19922;-89
2021/07/13 06:36:33;;;;;;;;;;;21.20;99.90;;;;;;4970532;28;19926;-89
2021/07/13 06:38:59;;;;;;;;;;;21.20;99.90;;;;;;4977417;28;20424;-89
2021/07/13 06:41:24;;;;;;;;;;;21.20;99.90;;;;;;4985644;28;19922;-90
2021/07/13 06:43:50;;;;;;;;;;;21.20;99.90;;;;;;4985568;28;20020;-89
2021/07/13 06:46:16;;;;;;;;;;;21.20;99.90;;;;;;4956713;28;20476;-88
2021/07/13 06:48:42;;;;;;;;;;;21.30;99.90;;;;;;4955689;28;19926;-93
2021/07/13 06:51:07;;;;;;;;;;;21.30;99.90;;;;;;4972803;28;19922;-89
2021/07/13 06:53:33;;;;;;;;;;;21.30;99.90;;;;;;4973470;28;19921;-90
2021/07/13 06:55:59;;;;;;;;;;;21.30;99.90;;;;;;4973222;28;20020;-90
2021/07/13 06:58:24;;;;;;;;;;;21.30;99.90;;;;;;4969165;28;19926;-93
2021/07/13 07:00:50;;;;;;;;;;;21.40;99.90;;;;;;4977611;28;19954;-93
2021/07/13 07:03:16;;;;;;;;;;;21.40;99.90;;;;;;4964462;28;19922;-91
2021/07/13 07:05:42;;;;;;;;;;;21.40;99.90;;;;;;4971796;28;19926;-94
2021/07/13 07:08:08;;;;;;;;;;;21.30;99.90;;;;;;4972380;28;19922;-92
2021/07/13 07:10:35;;;;;;;;;;;21.30;99.90;;;;;;4982783;28;19925;-94
2021/07/13 07:13:00;;;;;;;;;;;21.30;99.90;;;;;;4987257;28;19933;-93
2021/07/13 07:15:28;;;;;;;;;;;21.20;99.90;;;;;;4973015;28;20370;-92
2021/07/13 07:17:54;;;;;;;;;;;21.20;99.90;;;;;;4983392;28;19926;-93
2021/07/13 07:20:20;;;;;;;;;;;21.10;99.90;;;;;;4972301;28;19973;-94
2021/07/13 07:22:47;;;;;;;;;;;21.10;99.90;;;;;;4955508;28;19930;-92
2021/07/13 07:25:13;;;;;;;;;;;21.20;99.90;;;;;;4955376;28;19922;-92
2021/07/13 07:27:38;;;;;;;;;;;21.20;99.90;;;;;;4972254;28;19942;-95
2021/07/13 07:30:06;;;;;;;;;;;21.20;99.90;;;;;;4973592;28;19918;-93
2021/07/13 07:32:32;;;;;;;;;;;21.20;99.90;;;;;;4971117;28;19929;-92
2021/07/13 07:34:58;;;;;;;;;;;21.30;99.90;;;;;;4974340;28;19965;-91
2021/07/13 07:37:24;;;;;;;;;;;21.30;99.90;;;;;;4962866;28;19960;-92
2021/07/13 07:39:49;;;;;;;;;;;21.30;99.90;;;;;;4951678;28;19977;-91
2021/07/13 07:42:15;;;;;;;;;;;21.40;99.90;;;;;;4971496;28;20030;-92
2021/07/13 07:44:41;;;;;;;;;;;21.40;99.90;;;;;;4968834;28;19922;-93
2021/07/13 07:47:06;;;;;;;;;;;21.50;99.90;;;;;;4970238;28;19976;-93
2021/07/13 07:49:33;;;;;;;;;;;21.50;99.90;;;;;;4984205;28;20378;-92
2021/07/13 07:51:59;;;;;;;;;;;21.50;99.90;;;;;;4951355;28;20361;-92
2021/07/13 07:54:26;;;;;;;;;;;21.60;99.90;;;;;;4975219;28;19968;-94
2021/07/13 07:56:51;;;;;;;;;;;21.60;99.90;;;;;;4973483;28;19922;-94
2021/07/13 07:59:18;;;;;;;;;;;21.70;99.90;;;;;;4962047;28;20416;-92
2021/07/13 08:01:44;;;;;;;;;;;21.80;99.90;;;;;;4962907;28;20400;-90
2021/07/13 08:04:10;;;;;;;;;;;21.80;99.90;;;;;;4963212;28;19921;-91
2021/07/13 08:06:35;;;;;;;;;;;21.90;99.90;;;;;;4969761;28;19972;-91
2021/07/13 08:09:01;;;;;;;;;;;21.90;99.90;;;;;;4986767;28;19953;-93
2021/07/13 08:11:27;;;;;;;;;;;22.00;99.90;;;;;;4985972;28;19922;-92
2021/07/13 08:13:53;;;;;;;;;;;22.00;99.90;;;;;;4980693;28;20373;-90
2021/07/13 08:16:18;;;;;;;;;;;22.00;99.90;;;;;;4989471;28;19955;-91
2021/07/13 08:18:44;;;;;;;;;;;22.10;99.90;;;;;;4989708;28;20024;-91
2021/07/13 08:21:10;;;;;;;;;;;22.10;99.90;;;;;;4974763;28;19917;-92
2021/07/13 08:23:36;;;;;;;;;;;22.10;99.90;;;;;;4961058;28;19936;-92
2021/07/13 08:26:02;;;;;;;;;;;22.10;99.90;;;;;;4973374;28;19926;-93
2021/07/13 08:28:27;;;;;;;;;;;22.00;99.90;;;;;;4958318;28;19976;-92
2021/07/13 08:30:53;;;;;;;;;;;22.10;99.90;;;;;;4988966;28;20809;-90
2021/07/13 08:33:19;;;;;;;;;;;22.10;99.90;;;;;;4978660;28;19922;-92
2021/07/13 08:35:44;;;;;;;;;;;22.10;99.90;;;;;;4976812;28;19925;-90
2021/07/13 08:38:10;;;;;;;;;;;22.30;99.90;;;;;;4973950;28;19960;-91
2021/07/13 08:40:36;;;;;;;;;;;22.30;99.90;;;;;;4978405;28;19921;-93
2021/07/13 08:43:02;;;;;;;;;;;22.30;99.90;;;;;;4989726;28;19948;-92
2021/07/13 08:45:27;;;;;;;;;;;22.30;99.90;;;;;;4966361;28;20444;-94
2021/07/13 08:47:54;;;;;;;;;;;22.40;99.90;;;;;;4995254;28;19926;-90
2021/07/13 08:50:21;;;;;;;;;;;22.40;99.90;;;;;;4981870;28;19922;-93
2021/07/13 08:52:47;;;;;;;;;;;22.50;99.90;;;;;;4985932;28;19929;-91
2021/07/13 08:55:14;;;;;;;;;;;22.40;99.90;;;;;;4991796;28;19921;-93
2021/07/13 08:57:41;;;;;;;;;;;22.40;99.90;;;;;;5011352;28;20400;-92
2021/07/13 09:00:10;;;;;;;;;;;22.40;99.90;;;;;;4991238;28;19930;-91
2021/07/13 09:02:36;;;;;;;;;;;22.60;99.90;;;;;;4989042;28;19955;-92
2021/07/13 09:05:02;;;;;;;;;;;22.70;99.90;;;;;;4987947;28;19965;-91
2021/07/13 09:07:32;;;;;;;;;;;22.70;99.90;;;;;;4989398;28;20004;-91
2021/07/13 09:10:02;;;;;;;;;;;22.80;99.90;;;;;;4989711;28;20682;-91
2021/07/13 09:12:29;;;;;;;;;;;22.80;99.90;;;;;;5009101;28;19976;-93
2021/07/13 09:14:55;;;;;;;;;;;22.80;99.90;;;;;;4994728;28;19921;-93
2021/07/13 09:17:28;;;;;;;;;;;22.80;99.90;;;;;;5012102;28;20016;-92
2021/07/13 09:20:09;;;;;;;;;;;22.90;99.90;;;;;;4983301;28;19929;-91
2021/07/13 09:22:35;;;;;;;;;;;23.10;99.90;;;;;;4994972;28;19921;-94
2021/07/13 09:25:20;;;;;;;;;;;23.10;99.90;;;;;;4985657;28;19925;-91
2021/07/13 09:28:03;;;;;;;;;;;23.20;99.90;;;;;;4984836;28;19925;-94
2021/07/13 09:30:31;;;;;;;;;;;23.30;99.90;;;;;;4996667;28;19929;-92
2021/07/13 09:33:16;;;;;;;;;;;23.30;99.90;;;;;;4999286;28;19929;-91
2021/07/13 09:36:01;;;;;;;;;;;23.30;99.90;;;;;;4992385;28;19926;-94
2021/07/13 09:38:27;;;;;;;;;;;23.40;99.90;;;;;;4992093;28;19926;-92
2021/07/13 09:41:12;;;;;;;;;;;23.30;99.90;;;;;;4994155;28;19922;-93
2021/07/13 09:43:38;;;;;;;;;;;23.10;99.90;;;;;;4973422;28;19987;-94
2021/07/13 09:46:20;;;;;;;;;;;23.20;99.90;;;;;;4991132;28;20008;-93
2021/07/13 09:49:04;;;;;;;;;;;23.40;99.90;;;;;;4975214;28;19930;-91
2021/07/13 09:51:30;;;;;;;;;;;23.40;99.90;;;;;;4995016;28;20368;-92
2021/07/13 09:53:55;;;;;;;;;;;23.60;99.90;;;;;;4961569;28;19921;-92
2021/07/13 09:56:37;;;;;;;;;;;23.60;99.90;;;;;;4987750;28;20007;-93
2021/07/13 09:59:02;;;;;;;;;;;23.50;99.90;;;;;;4992434;28;19933;-91
2021/07/13 10:01:28;;;;;;;;;;;23.60;99.90;;;;;;4979056;28;19921;-93
2021/07/13 10:03:54;;;;;;;;;;;23.70;99.90;;;;;;4979786;28;19925;-93
2021/07/13 10:06:20;;;;;;;;;;;23.60;99.90;;;;;;4996313;28;19922;-93
2021/07/13 10:08:46;;;;;;;;;;;23.40;99.90;;;;;;4983290;28;20357;-93
2021/07/13 10:11:12;;;;;;;;;;;23.60;99.90;;;;;;4982948;28;20016;-94
2021/07/13 10:13:38;;;;;;;;;;;23.50;99.90;;;;;;4990969;28;20005;-94
2021/07/13 10:16:05;;;;;;;;;;;23.60;99.90;;;;;;5007632;28;20045;-95
2021/07/13 10:18:31;;;;;;;;;;;23.60;99.90;;;;;;4987707;28;19926;-93
2021/07/13 10:20:56;;;;;;;;;;;23.50;99.90;;;;;;4980491;28;20370;-95
2021/07/13 10:23:22;;;;;;;;;;;23.50;99.90;;;;;;4990142;28;20523;-95
2021/07/13 10:25:50;;;;;;;;;;;23.40;99.90;;;;;;4986055;28;19921;-94
2021/07/13 10:28:20;;;;;;;;;;;23.40;99.90;;;;;;4955587;28;19922;-93
2021/07/13 10:30:46;;;;;;;;;;;23.50;99.90;;;;;;4973425;28;19922;-93
2021/07/13 10:33:30;;;;;;;;;;;23.30;99.90;;;;;;4971570;28;19929;-93
2021/07/13 10:36:16;;;;;;;;;;;23.20;99.90;;;;;;4971722;28;19969;-96
2021/07/13 10:38:42;;;;;;;;;;;23.20;99.90;;;;;;4971210;28;20339;-94
2021/07/13 10:41:10;;;;;;;;;;;23.20;99.90;;;;;;4957292;28;19929;-94
2021/07/13 10:43:44;;;;;;;;;;;23.20;99.90;;;;;;4982887;28;20004;-92
2021/07/13 10:46:10;;;;;;;;;;;23.20;99.90;;;;;;4976553;28;19929;-90
2021/07/13 10:48:38;;;;;;;;;;;23.20;99.90;;;;;;4980004;28;19925;-92
2021/07/13 10:51:06;;;;;;;;;;;23.00;99.90;;;;;;4974247;28;19989;-90
2021/07/13 10:53:42;;;;;;;;;;;23.00;99.90;;;;;;4972631;28;19954;-91
2021/07/13 10:56:08;;;;;;;;;;;22.90;99.90;;;;;;4986813;28;19930;-91
2021/07/13 10:58:50;;;;;;;;;;;22.90;99.90;;;;;;4985758;28;19929;-91
2021/07/13 11:01:15;;;;;;;;;;;22.80;99.90;;;;;;4982787;28;20259;-90
2021/07/13 11:03:42;;;;;;;;;;;22.80;99.90;;;;;;4984927;28;19921;-91
2021/07/13 11:06:08;;;;;;;;;;;23.00;99.90;;;;;;4987130;28;20020;-91
2021/07/13 11:11:10;;;;;;;;;;;23.20;99.90;;;;;;4974819;28;19922;-90
2021/07/13 11:13:36;;;;;;;;;;;23.30;99.90;;;;;;4970897;28;19922;-92
2021/07/13 11:16:03;;;;;;;;;;;23.20;99.90;;;;;;4974148;28;20036;-91
2021/07/13 11:18:29;;;;;;;;;;;23.20;99.90;;;;;;4983206;28;19933;-91
2021/07/13 11:20:54;;;;;;;;;;;23.10;99.90;;;;;;4983730;28;19969;-89
2021/07/13 11:23:27;;;;;;;;;;;23.20;99.90;;;;;;4970620;28;19958;-90
2021/07/13 11:26:03;;;;;;;;;;;23.20;99.90;;;;;;4974850;28;19928;-91
2021/07/13 11:28:28;;;;;;;;;;;23.20;99.90;;;;;;4974609;28;20485;-92
2021/07/13 11:30:54;;;;;;;;;;;23.10;99.90;;;;;;4957161;28;19929;-92
2021/07/13 11:33:24;;;;;;;;;;;22.80;99.90;;;;;;4972593;28;19930;-92
2021/07/13 11:35:53;;;;;;;;;;;22.50;99.90;;;;;;4971637;28;19926;-92
2021/07/13 11:38:26;;;;;;;;;;;22.30;99.90;;;;;;4985392;28;19926;-91
2021/07/13 11:41:11;;;;;;;;;;;22.20;99.90;;;;;;4974266;28;19922;-91
2021/07/13 11:43:37;;;;;;;;;;;22.20;99.90;;;;;;4986206;28;19928;-92
2021/07/13 11:46:12;;;;;;;;;;;22.20;99.90;;;;;;4976597;28;19973;-91
2021/07/13 11:48:38;;;;;;;;;;;22.20;99.90;;;;;;4971308;28;20028;-92
2021/07/13 11:51:04;;;;;;;;;;;22.10;99.90;;;;;;4973087;28;20029;-92
2021/07/13 11:53:31;;;;;;;;;;;22.10;99.90;;;;;;4976713;28;20496;-94
2021/07/13 11:56:01;;;;;;;;;;;21.90;99.90;;;;;;4973019;28;19926;-93
2021/07/13 11:58:27;;;;;;;;;;;21.70;99.90;;;;;;4975624;28;20176;-92
2021/07/13 12:00:53;;;;;;;;;;;21.60;99.90;;;;;;4973735;28;20266;-93
2021/07/13 12:03:28;;;;;;;;;;;21.50;99.90;;;;;;4973311;28;19932;-92
2021/07/13 12:06:14;;;;;;;;;;;21.40;99.90;;;;;;4974325;28;19972;-93
2021/07/13 12:08:40;;;;;;;;;;;21.20;99.90;;;;;;4989242;28;19964;-94
2021/07/13 12:11:06;;;;;;;;;;;21.20;99.90;;;;;;4991013;28;19969;-96
2021/07/13 12:13:32;;;;;;;;;;;21.00;99.90;;;;;;5002764;28;19922;-94
2021/07/13 12:16:17;;;;;;;;;;;20.90;99.90;;;;;;5034298;23;19925;-93
2021/07/13 12:18:43;;;;;;;;;;;20.80;99.90;;;;;;5011149;28;19972;-90
2021/07/13 12:21:12;;;;;;;;;;;20.60;99.90;;;;;;4993485;28;20411;-91
2021/07/13 12:23:42;;;;;;;;;;;20.50;99.90;;;;;;5019852;28;19921;-89
2021/07/13 12:26:25;;;;;;;;;;;20.50;99.90;;;;;;5013819;28;19927;-91
2021/07/13 12:28:59;;;;;;;;;;;20.40;99.90;;;;;;5024754;28;19921;-90
2021/07/13 12:31:25;;;;;;;;;;;20.40;99.90;;;;;;5030933;28;19949;-90
2021/07/13 12:33:51;;;;;;;;;;;20.30;99.90;;;;;;5005596;28;20011;-91
2021/07/13 12:36:27;;;;;;;;;;;20.30;99.90;;;;;;5015216;28;19922;-90
2021/07/13 12:38:54;;;;;;;;;;;20.30;99.90;;;;;;5023084;28;19921;-91
2021/07/13 12:41:21;;;;;;;;;;;20.40;99.90;;;;;;5015238;28;19921;-90
2021/07/13 12:43:49;;;;;;;;;;;20.40;99.90;;;;;;5003834;28;19922;-91
2021/07/13 12:46:28;;;;;;;;;;;20.40;99.90;;;;;;4996059;28;19933;-93
2021/07/13 12:48:55;;;;;;;;;;;20.40;99.90;;;;;;5034153;28;19921;-92
2021/07/13 12:51:21;;;;;;;;;;;20.40;99.90;;;;;;5019424;28;19925;-90
2021/07/13 12:53:47;;;;;;;;;;;20.40;99.90;;;;;;4993256;28;19932;-90
2021/07/13 12:56:14;;;;;;;;;;;20.40;99.90;;;;;;5013218;28;20328;-91
2021/07/13 12:58:40;;;;;;;;;;;20.40;99.90;;;;;;5000990;28;20361;-92
2021/07/13 13:01:13;;;;;;;;;;;20.50;99.90;;;;;;5013120;28;19921;-91
2021/07/13 13:03:40;;;;;;;;;;;20.50;99.90;;;;;;5026349;28;20350;-91
2021/07/13 13:06:08;;;;;;;;;;;20.40;99.90;;;;;;5023696;28;19984;-91
2021/07/13 13:08:37;;;;;;;;;;;20.40;99.90;;;;;;5017780;28;19921;-91
2021/07/13 13:11:06;;;;;;;;;;;20.40;99.90;;;;;;4999189;28;19925;-91
2021/07/13 13:13:33;;;;;;;;;;;20.40;99.90;;;;;;5031146;28;19988;-90
2021/07/13 13:15:59;;;;;;;;;;;20.30;99.90;;;;;;4997837;28;19952;-91
2021/07/13 13:18:26;;;;;;;;;;;20.30;99.90;;;;;;4984494;28;19991;-90
2021/07/13 13:20:52;;;;;;;;;;;20.30;99.90;;;;;;5026960;28;19921;-90
2021/07/13 13:23:18;;;;;;;;;;;20.30;99.90;;;;;;5012351;28;19953;-92
2021/07/13 13:25:44;;;;;;;;;;;20.30;99.90;;;;;;5008463;28;19964;-91
2021/07/13 13:28:10;;;;;;;;;;;20.30;99.90;;;;;;5014708;28;20395;-91
2021/07/13 13:30:37;;;;;;;;;;;20.30;99.90;;;;;;5014338;28;19923;-90
2021/07/13 13:33:03;;;;;;;;;;;20.30;99.90;;;;;;5001344;28;19929;-90
2021/07/13 13:35:42;;;;;;;;;;;20.30;99.90;;;;;;5020390;28;20428;-90
2021/07/13 13:38:10;;;;;;;;;;;20.40;99.90;;;;;;5014109;28;19928;-91
2021/07/13 13:40:38;;;;;;;;;;;20.40;99.90;;;;;;5013559;28;20547;-91
2021/07/13 13:43:04;;;;;;;;;;;20.40;99.90;;;;;;5030960;28;19921;-90
2021/07/13 13:45:30;;;;;;;;;;;20.30;99.90;;;;;;5020502;28;19948;-91
2021/07/13 13:47:55;;;;;;;;;;;20.30;99.90;;;;;;5015160;28;19921;-90
2021/07/13 13:50:21;;;;;;;;;;;20.20;99.90;;;;;;5025700;28;19921;-90
2021/07/13 13:52:47;;;;;;;;;;;20.20;99.90;;;;;;4995174;28;20274;-90
2021/07/13 13:55:13;;;;;;;;;;;20.10;99.90;;;;;;5016331;28;19921;-90
2021/07/13 13:57:38;;;;;;;;;;;20.10;99.90;;;;;;5004049;28;19925;-91
2021/07/13 14:00:05;;;;;;;;;;;20.10;99.90;;;;;;5026533;28;19975;-90
2021/07/13 14:02:31;;;;;;;;;;;20.10;99.90;;;;;;5003163;28;20020;-91
2021/07/13 14:04:56;;;;;;;;;;;20.10;99.90;;;;;;5005986;28;20012;-90
2021/07/13 14:07:22;;;;;;;;;;;20.00;99.90;;;;;;4994798;28;19929;-92
2021/07/13 14:09:49;;;;;;;;;;;20.00;99.90;;;;;;5020700;28;20439;-91
2021/07/13 14:12:15;;;;;;;;;;;20.10;99.90;;;;;;4998805;28;19924;-91
2021/07/13 14:14:41;;;;;;;;;;;20.00;99.90;;;;;;5014269;28;19936;-90
2021/07/13 14:17:07;;;;;;;;;;;20.00;99.90;;;;;;4999892;28;19929;-90
2021/07/13 14:19:33;;;;;;;;;;;20.10;99.90;;;;;;4998481;28;19937;-91
2021/07/13 14:21:59;;;;;;;;;;;20.10;99.90;;;;;;5020124;28;20012;-90